sensor_id;sensor_type;location;lat;lon;timestamp;temperature;humidity
32334;DHT22;18810;53.040;8.850;2023-06-26T00:02:14;23.90;99.90
32334;DHT22;18810;53.040;8.850;2023-06-26T00:04:43;23.90;99.90
32334;DHT22;18810;53.040;8.850;2023-06-26T00:07:09;23.80;99.90
32334;DHT22;18810;53.040;8.850;2023-06-26T00:09:35;23.90;99.90
32334;DHT22;18810;53.040;8.850;2023-06-26T00:12:00;23.80;99.90
32334;DHT22;18810;53.040;8.850;2023-06-26T00:14:26;23.70;99.90
32334;DHT22;18810;53.040;8.850;2023-06-26T00:16:52;23.60;99.90
32334;DHT22;18810;53.040;8.850;2023-06-26T00:19:18;23.60;99.90
32334;DHT22;18810;53.040;8.850;2023-06-26T00:21:44;23.60;99.90
32334;DHT22;18810;53.040;8.850;2023-06-26T00:24:17;23.50;99.90
32334;DHT22;18810;53.040;8.850;2023-06-26T00:26:45;23.50;99.90
32334;DHT22;18810;53.040;8.850;2023-06-26T00:29:11;23.50;99.90
32334;DHT22;18810;53.040;8.850;2023-06-26T00:31:36;23.50;99.90
32334;DHT22;18810;53.040;8.850;2023-06-26T00:34:03;23.50;99.90
32334;DHT22;18810;53.040;8.850;2023-06-26T00:36:29;23.40;99.90
32334;DHT22;18810;53.040;8.850;2023-06-26T00:38:55;23.40;99.90
32334;DHT22;18810;53.040;8.850;2023-06-26T00:41:20;23.30;99.90
32334;DHT22;18810;53.040;8.850;2023-06-26T00:43:46;23.20;99.90
32334;DHT22;18810;53.040;8.850;2023-06-26T00:46:15;23.10;99.90
32334;DHT22;18810;53.040;8.850;2023-06-26T00:48:46;23.00;99.90
32334;DHT22;18810;53.040;8.850;2023-06-26T00:51:12;23.00;99.90
32334;DHT22;18810;53.040;8.850;2023-06-26T00:53:37;22.90;99.90
32334;DHT22;18810;53.040;8.850;2023-06-26T00:56:05;22.90;99.90
32334;DHT22;18810;53.040;8.850;2023-06-26T00:58:30;22.80;99.90
32334;DHT22;18810;53.040;8.850;2023-06-26T01:00:56;22.70;99.90
32334;DHT22;18810;53.040;8.850;2023-06-26T01:03:23;22.60;99.90
32334;DHT22;18810;53.040;8.850;2023-06-26T01:05:52;22.50;99.90
32334;DHT22;18810;53.040;8.850;2023-06-26T01:08:18;22.40;99.90
32334;DHT22;18810;53.040;8.850;2023-06-26T01:10:45;22.40;99.90
32334;DHT22;18810;53.040;8.850;2023-06-26T01:13:12;22.40;99.90
32334;DHT22;18810;53.040;8.850;2023-06-26T01:15:39;22.40;99.90
32334;DHT22;18810;53.040;8.850;2023-06-26T01:18:05;22.30;99.90
32334;DHT22;18810;53.040;8.850;2023-06-26T01:20:34;22.30;99.90
32334;DHT22;18810;53.040;8.850;2023-06-26T01:28:19;22.20;99.90
32334;DHT22;18810;53.040;8.850;2023-06-26T01:30:46;22.20;99.90
32334;DHT22;18810;53.040;8.850;2023-06-26T01:33:13;22.10;99.90
32334;DHT22;18810;53.040;8.850;2023-06-26T01:35:40;22.10;99.90
32334;DHT22;18810;53.040;8.850;2023-06-26T01:38:16;22.20;99.90
32334;DHT22;18810;53.040;8.850;2023-06-26T01:40:42;22.20;99.90
32334;DHT22;18810;53.040;8.850;2023-06-26T01:46:04;22.20;99.90
32334;DHT22;18810;53.040;8.850;2023-06-26T01:48:34;22.10;99.90
32334;DHT22;18810;53.040;8.850;2023-06-26T01:51:05;22.10;99.90
32334;DHT22;18810;53.040;8.850;2023-06-26T01:53:36;21.90;99.90
32334;DHT22;18810;53.040;8.850;2023-06-26T01:56:08;21.80;99.90
32334;DHT22;18810;53.040;8.850;2023-06-26T01:58:43;21.80;99.90
32334;DHT22;18810;53.040;8.850;2023-06-26T02:01:10;21.80;99.90
32334;DHT22;18810;53.040;8.850;2023-06-26T02:03:35;21.70;99.90
32334;DHT22;18810;53.040;8.850;2023-06-26T02:06:01;21.70;99.90
32334;DHT22;18810;53.040;8.850;2023-06-26T02:08:27;21.70;99.90
32334;DHT22;18810;53.040;8.850;2023-06-26T02:10:53;21.60;99.90
32334;DHT22;18810;53.040;8.850;2023-06-26T02:13:18;21.60;99.90
32334;DHT22;18810;53.040;8.850;2023-06-26T02:15:44;21.70;99.90
32334;DHT22;18810;53.040;8.850;2023-06-26T02:18:10;21.60;99.90
32334;DHT22;18810;53.040;8.850;2023-06-26T02:20:35;21.60;99.90
32334;DHT22;18810;53.040;8.850;2023-06-26T02:23:01;21.60;99.90
32334;DHT22;18810;53.040;8.850;2023-06-26T02:25:27;21.60;99.90
32334;DHT22;18810;53.040;8.850;2023-06-26T02:27:53;21.60;99.90
32334;DHT22;18810;53.040;8.850;2023-06-26T02:30:19;21.60;99.90
32334;DHT22;18810;53.040;8.850;2023-06-26T02:32:44;21.40;99.90
32334;DHT22;18810;53.040;8.850;2023-06-26T02:35:10;21.30;99.90
32334;DHT22;18810;53.040;8.850;2023-06-26T02:37:36;21.20;99.90
32334;DHT22;18810;53.040;8.850;2023-06-26T02:40:02;21.20;99.90
32334;DHT22;18810;53.040;8.850;2023-06-26T02:42:31;21.30;99.90
32334;DHT22;18810;53.040;8.850;2023-06-26T02:44:56;21.20;99.90
32334;DHT22;18810;53.040;8.850;2023-06-26T02:47:22;21.20;99.90
32334;DHT22;18810;53.040;8.850;2023-06-26T02:49:51;21.20;99.90
32334;DHT22;18810;53.040;8.850;2023-06-26T02:52:16;21.20;99.90
32334;DHT22;18810;53.040;8.850;2023-06-26T02:54:42;21.10;99.90
32334;DHT22;18810;53.040;8.850;2023-06-26T02:57:08;21.10;99.90
32334;DHT22;18810;53.040;8.850;2023-06-26T02:59:34;21.10;99.90
32334;DHT22;18810;53.040;8.850;2023-06-26T03:01:59;21.00;99.90
32334;DHT22;18810;53.040;8.850;2023-06-26T03:04:25;21.10;99.90
32334;DHT22;18810;53.040;8.850;2023-06-26T03:06:51;21.10;99.90
32334;DHT22;18810;53.040;8.850;2023-06-26T03:09:16;21.00;99.90
32334;DHT22;18810;53.040;8.850;2023-06-26T03:11:43;21.10;99.90
32334;DHT22;18810;53.040;8.850;2023-06-26T03:14:09;21.00;99.90
32334;DHT22;18810;53.040;8.850;2023-06-26T03:16:34;21.00;99.90
32334;DHT22;18810;53.040;8.850;2023-06-26T03:19:00;20.90;99.90
32334;DHT22;18810;53.040;8.850;2023-06-26T03:21:26;20.90;99.90
32334;DHT22;18810;53.040;8.850;2023-06-26T03:23:52;20.90;99.90
32334;DHT22;18810;53.040;8.850;2023-06-26T03:26:18;21.00;99.90
32334;DHT22;18810;53.040;8.850;2023-06-26T03:28:43;21.00;99.90
32334;DHT22;18810;53.040;8.850;2023-06-26T03:31:09;21.00;99.90
32334;DHT22;18810;53.040;8.850;2023-06-26T03:33:35;20.90;99.90
32334;DHT22;18810;53.040;8.850;2023-06-26T03:36:00;20.90;99.90
32334;DHT22;18810;53.040;8.850;2023-06-26T03:38:26;20.90;99.90
32334;DHT22;18810;53.040;8.850;2023-06-26T03:40:52;20.90;99.90
32334;DHT22;18810;53.040;8.850;2023-06-26T03:43:18;20.90;99.90
32334;DHT22;18810;53.040;8.850;2023-06-26T03:45:43;20.90;99.90
32334;DHT22;18810;53.040;8.850;2023-06-26T03:48:09;20.90;99.90
32334;DHT22;18810;53.040;8.850;2023-06-26T03:50:35;20.90;99.90
32334;DHT22;18810;53.040;8.850;2023-06-26T03:53:01;20.90;99.90
32334;DHT22;18810;53.040;8.850;2023-06-26T03:55:26;20.80;99.90
32334;DHT22;18810;53.040;8.850;2023-06-26T03:57:52;20.80;99.90
32334;DHT22;18810;53.040;8.850;2023-06-26T04:00:18;20.80;99.90
32334;DHT22;18810;53.040;8.850;2023-06-26T04:02:44;20.80;99.90
32334;DHT22;18810;53.040;8.850;2023-06-26T04:05:09;20.90;99.90
32334;DHT22;18810;53.040;8.850;2023-06-26T04:07:36;20.90;99.90
32334;DHT22;18810;53.040;8.850;2023-06-26T04:10:02;20.90;99.90
32334;DHT22;18810;53.040;8.850;2023-06-26T04:12:28;20.90;99.90
32334;DHT22;18810;53.040;8.850;2023-06-26T04:14:54;20.90;99.90
32334;DHT22;18810;53.040;8.850;2023-06-26T04:17:20;20.90;99.90
32334;DHT22;18810;53.040;8.850;2023-06-26T04:19:46;21.00;99.90
32334;DHT22;18810;53.040;8.850;2023-06-26T04:22:12;21.00;99.90
32334;DHT22;18810;53.040;8.850;2023-06-26T04:24:37;21.20;99.90
32334;DHT22;18810;53.040;8.850;2023-06-26T04:27:03;21.30;99.90
32334;DHT22;18810;53.040;8.850;2023-06-26T04:29:29;21.30;99.90
32334;DHT22;18810;53.040;8.850;2023-06-26T04:31:55;21.30;99.90
32334;DHT22;18810;53.040;8.850;2023-06-26T04:34:27;21.30;99.90
32334;DHT22;18810;53.040;8.850;2023-06-26T04:36:53;21.40;99.90
32334;DHT22;18810;53.040;8.850;2023-06-26T04:39:20;21.50;99.90
32334;DHT22;18810;53.040;8.850;2023-06-26T04:41:45;21.50;99.90
32334;DHT22;18810;53.040;8.850;2023-06-26T04:44:11;21.70;99.90
32334;DHT22;18810;53.040;8.850;2023-06-26T04:46:37;21.70;99.90
32334;DHT22;18810;53.040;8.850;2023-06-26T04:49:10;21.70;99.90
32334;DHT22;18810;53.040;8.850;2023-06-26T04:51:36;21.80;99.90
32334;DHT22;18810;53.040;8.850;2023-06-26T04:54:09;22.80;99.90
32334;DHT22;18810;53.040;8.850;2023-06-26T04:56:35;21.80;99.90
32334;DHT22;18810;53.040;8.850;2023-06-26T04:59:01;21.80;99.90
32334;DHT22;18810;53.040;8.850;2023-06-26T05:01:27;21.90;99.90
32334;DHT22;18810;53.040;8.850;2023-06-26T05:03:56;22.00;99.90
32334;DHT22;18810;53.040;8.850;2023-06-26T05:06:22;22.00;99.90
32334;DHT22;18810;53.040;8.850;2023-06-26T05:08:48;22.10;99.90
32334;DHT22;18810;53.040;8.850;2023-06-26T05:11:13;22.30;99.90
32334;DHT22;18810;53.040;8.850;2023-06-26T05:13:39;22.30;99.90
32334;DHT22;18810;53.040;8.850;2023-06-26T05:16:06;22.40;99.90
32334;DHT22;18810;53.040;8.850;2023-06-26T05:18:34;22.50;99.90
32334;DHT22;18810;53.040;8.850;2023-06-26T05:21:00;22.60;99.90
32334;DHT22;18810;53.040;8.850;2023-06-26T05:23:27;22.50;99.90
32334;DHT22;18810;53.040;8.850;2023-06-26T05:25:55;22.40;99.90
32334;DHT22;18810;53.040;8.850;2023-06-26T05:28:22;22.50;99.90
32334;DHT22;18810;53.040;8.850;2023-06-26T05:30:53;22.50;99.90
32334;DHT22;18810;53.040;8.850;2023-06-26T05:33:23;22.50;99.90
32334;DHT22;18810;53.040;8.850;2023-06-26T05:35:49;22.60;99.90
32334;DHT22;18810;53.040;8.850;2023-06-26T05:38:17;22.60;99.90
32334;DHT22;18810;53.040;8.850;2023-06-26T05:40:43;22.70;99.90
32334;DHT22;18810;53.040;8.850;2023-06-26T05:43:09;22.70;99.90
32334;DHT22;18810;53.040;8.850;2023-06-26T05:45:35;22.80;99.90
32334;DHT22;18810;53.040;8.850;2023-06-26T05:48:01;23.00;99.90
32334;DHT22;18810;53.040;8.850;2023-06-26T05:50:27;23.10;99.90
32334;DHT22;18810;53.040;8.850;2023-06-26T05:52:53;23.20;99.90
32334;DHT22;18810;53.040;8.850;2023-06-26T05:55:20;23.30;99.90
32334;DHT22;18810;53.040;8.850;2023-06-26T05:57:46;23.40;99.90
32334;DHT22;18810;53.040;8.850;2023-06-26T06:00:13;23.60;99.90
32334;DHT22;18810;53.040;8.850;2023-06-26T06:02:40;23.80;99.90
32334;DHT22;18810;53.040;8.850;2023-06-26T06:05:07;23.90;99.90
32334;DHT22;18810;53.040;8.850;2023-06-26T06:07:33;23.90;99.90
32334;DHT22;18810;53.040;8.850;2023-06-26T06:10:00;24.10;99.90
32334;DHT22;18810;53.040;8.850;2023-06-26T06:12:26;24.20;99.90
32334;DHT22;18810;53.040;8.850;2023-06-26T06:14:52;24.10;99.90
32334;DHT22;18810;53.040;8.850;2023-06-26T06:17:19;24.30;99.90
32334;DHT22;18810;53.040;8.850;2023-06-26T06:19:45;24.40;99.90
32334;DHT22;18810;53.040;8.850;2023-06-26T06:22:11;24.60;99.90
32334;DHT22;18810;53.040;8.850;2023-06-26T06:24:36;24.80;99.90
32334;DHT22;18810;53.040;8.850;2023-06-26T06:27:02;24.80;99.90
32334;DHT22;18810;53.040;8.850;2023-06-26T06:29:28;24.90;99.90
32334;DHT22;18810;53.040;8.850;2023-06-26T06:31:54;25.30;99.90
32334;DHT22;18810;53.040;8.850;2023-06-26T06:34:20;25.50;99.90
32334;DHT22;18810;53.040;8.850;2023-06-26T06:36:46;26.10;99.90
32334;DHT22;18810;53.040;8.850;2023-06-26T06:39:11;27.30;99.90
32334;DHT22;18810;53.040;8.850;2023-06-26T06:41:38;28.70;99.90
32334;DHT22;18810;53.040;8.850;2023-06-26T06:44:03;30.10;99.20
32334;DHT22;18810;53.040;8.850;2023-06-26T06:46:29;31.60;96.50
32334;DHT22;18810;53.040;8.850;2023-06-26T06:48:55;32.40;94.20
32334;DHT22;18810;53.040;8.850;2023-06-26T06:51:22;32.80;93.70
32334;DHT22;18810;53.040;8.850;2023-06-26T06:53:47;32.20;93.50
32334;DHT22;18810;53.040;8.850;2023-06-26T06:56:13;32.50;93.40
32334;DHT22;18810;53.040;8.850;2023-06-26T06:58:39;32.40;93.40
32334;DHT22;18810;53.040;8.850;2023-06-26T07:01:08;32.50;93.40
32334;DHT22;18810;53.040;8.850;2023-06-26T07:03:34;32.40;93.50
32334;DHT22;18810;53.040;8.850;2023-06-26T07:06:01;32.40;93.00
32334;DHT22;18810;53.040;8.850;2023-06-26T07:08:26;32.30;93.10
32334;DHT22;18810;53.040;8.850;2023-06-26T07:10:52;31.60;93.10
32334;DHT22;18810;53.040;8.850;2023-06-26T07:13:18;30.30;94.50
32334;DHT22;18810;53.040;8.850;2023-06-26T07:15:45;29.70;95.80
32334;DHT22;18810;53.040;8.850;2023-06-26T07:18:11;29.30;96.50
32334;DHT22;18810;53.040;8.850;2023-06-26T07:20:36;28.60;97.50
32334;DHT22;18810;53.040;8.850;2023-06-26T07:23:02;28.20;98.60
32334;DHT22;18810;53.040;8.850;2023-06-26T07:25:28;28.10;99.30
32334;DHT22;18810;53.040;8.850;2023-06-26T07:27:53;27.90;99.70
32334;DHT22;18810;53.040;8.850;2023-06-26T07:30:19;27.80;99.90
32334;DHT22;18810;53.040;8.850;2023-06-26T07:32:45;28.00;99.90
32334;DHT22;18810;53.040;8.850;2023-06-26T07:35:11;28.00;99.70
32334;DHT22;18810;53.040;8.850;2023-06-26T07:37:36;27.90;99.90
32334;DHT22;18810;53.040;8.850;2023-06-26T07:40:02;27.80;99.90
32334;DHT22;18810;53.040;8.850;2023-06-26T07:42:29;27.80;99.90
32334;DHT22;18810;53.040;8.850;2023-06-26T07:44:55;27.90;99.90
32334;DHT22;18810;53.040;8.850;2023-06-26T07:47:20;28.10;99.70
32334;DHT22;18810;53.040;8.850;2023-06-26T07:49:46;28.20;99.70
32334;DHT22;18810;53.040;8.850;2023-06-26T07:52:12;28.50;98.90
32334;DHT22;18810;53.040;8.850;2023-06-26T07:54:37;29.00;98.50
32334;DHT22;18810;53.040;8.850;2023-06-26T07:57:05;29.10;97.60
32334;DHT22;18810;53.040;8.850;2023-06-26T07:59:34;29.20;97.70
32334;DHT22;18810;53.040;8.850;2023-06-26T08:02:00;29.30;97.70
32334;DHT22;18810;53.040;8.850;2023-06-26T08:04:28;29.40;97.70
32334;DHT22;18810;53.040;8.850;2023-06-26T08:06:56;29.30;97.60
32334;DHT22;18810;53.040;8.850;2023-06-26T08:09:24;29.00;98.10
32334;DHT22;18810;53.040;8.850;2023-06-26T08:11:50;29.30;98.60
32334;DHT22;18810;53.040;8.850;2023-06-26T08:14:16;29.90;98.20
32334;DHT22;18810;53.040;8.850;2023-06-26T08:16:42;29.60;97.80
32334;DHT22;18810;53.040;8.850;2023-06-26T08:19:09;29.60;98.10
32334;DHT22;18810;53.040;8.850;2023-06-26T08:21:35;29.40;98.40
32334;DHT22;18810;53.040;8.850;2023-06-26T08:24:01;29.50;99.10
32334;DHT22;18810;53.040;8.850;2023-06-26T08:26:27;29.30;98.60
32334;DHT22;18810;53.040;8.850;2023-06-26T08:28:53;28.90;99.20
32334;DHT22;18810;53.040;8.850;2023-06-26T08:31:19;28.70;99.70
32334;DHT22;18810;53.040;8.850;2023-06-26T08:33:46;28.00;99.90
32334;DHT22;18810;53.040;8.850;2023-06-26T08:36:12;27.40;99.90
32334;DHT22;18810;53.040;8.850;2023-06-26T08:38:37;26.90;99.90
32334;DHT22;18810;53.040;8.850;2023-06-26T08:41:06;25.60;99.90
32334;DHT22;18810;53.040;8.850;2023-06-26T08:43:32;25.50;99.90
32334;DHT22;18810;53.040;8.850;2023-06-26T08:45:59;25.20;99.90
32334;DHT22;18810;53.040;8.850;2023-06-26T08:48:25;24.70;99.90
32334;DHT22;18810;53.040;8.850;2023-06-26T08:50:53;24.10;99.90
32334;DHT22;18810;53.040;8.850;2023-06-26T08:56:08;22.60;99.90
32334;DHT22;18810;53.040;8.850;2023-06-26T08:58:35;22.30;99.90
32334;DHT22;18810;53.040;8.850;2023-06-26T09:01:04;22.10;99.90
32334;DHT22;18810;53.040;8.850;2023-06-26T09:03:31;22.20;99.90
32334;DHT22;18810;53.040;8.850;2023-06-26T09:05:57;22.10;99.90
32334;DHT22;18810;53.040;8.850;2023-06-26T09:08:23;22.20;99.90
32334;DHT22;18810;53.040;8.850;2023-06-26T09:10:48;22.20;99.90
32334;DHT22;18810;53.040;8.850;2023-06-26T09:13:14;22.30;99.90
32334;DHT22;18810;53.040;8.850;2023-06-26T09:15:44;22.40;99.90
32334;DHT22;18810;53.040;8.850;2023-06-26T09:18:10;22.60;99.90
32334;DHT22;18810;53.040;8.850;2023-06-26T09:20:36;22.80;99.90
32334;DHT22;18810;53.040;8.850;2023-06-26T09:23:02;23.40;99.90
32334;DHT22;18810;53.040;8.850;2023-06-26T09:25:28;23.90;99.90
32334;DHT22;18810;53.040;8.850;2023-06-26T09:27:55;24.10;99.90
32334;DHT22;18810;53.040;8.850;2023-06-26T09:30:21;24.20;99.90
32334;DHT22;18810;53.040;8.850;2023-06-26T09:32:47;24.20;99.90
32334;DHT22;18810;53.040;8.850;2023-06-26T09:35:13;24.40;99.90
32334;DHT22;18810;53.040;8.850;2023-06-26T09:37:39;24.70;99.90
32334;DHT22;18810;53.040;8.850;2023-06-26T09:40:06;24.90;99.90
32334;DHT22;18810;53.040;8.850;2023-06-26T09:42:32;24.90;99.90
32334;DHT22;18810;53.040;8.850;2023-06-26T09:44:58;26.50;99.90
32334;DHT22;18810;53.040;8.850;2023-06-26T09:47:25;26.90;99.90
32334;DHT22;18810;53.040;8.850;2023-06-26T09:49:51;27.10;99.90
32334;DHT22;18810;53.040;8.850;2023-06-26T09:52:18;26.70;99.90
32334;DHT22;18810;53.040;8.850;2023-06-26T09:54:45;26.20;99.90
32334;DHT22;18810;53.040;8.850;2023-06-26T09:57:16;26.00;99.90
32334;DHT22;18810;53.040;8.850;2023-06-26T09:59:43;25.70;99.90
32334;DHT22;18810;53.040;8.850;2023-06-26T10:02:11;25.30;99.90
32334;DHT22;18810;53.040;8.850;2023-06-26T10:04:37;25.10;99.90
32334;DHT22;18810;53.040;8.850;2023-06-26T10:07:13;25.40;99.90
32334;DHT22;18810;53.040;8.850;2023-06-26T10:09:41;26.40;99.90
32334;DHT22;18810;53.040;8.850;2023-06-26T10:12:26;26.70;99.90
32334;DHT22;18810;53.040;8.850;2023-06-26T10:14:53;26.90;99.90
32334;DHT22;18810;53.040;8.850;2023-06-26T10:17:21;27.40;99.90
32334;DHT22;18810;53.040;8.850;2023-06-26T10:19:48;27.70;99.90
32334;DHT22;18810;53.040;8.850;2023-06-26T10:22:18;28.20;99.90
32334;DHT22;18810;53.040;8.850;2023-06-26T10:24:47;28.20;99.90
32334;DHT22;18810;53.040;8.850;2023-06-26T10:27:19;28.20;99.90
32334;DHT22;18810;53.040;8.850;2023-06-26T10:29:48;28.20;99.90
32334;DHT22;18810;53.040;8.850;2023-06-26T10:32:16;28.90;99.90
32334;DHT22;18810;53.040;8.850;2023-06-26T10:34:43;29.10;98.60
32334;DHT22;18810;53.040;8.850;2023-06-26T10:37:09;29.60;97.50
32334;DHT22;18810;53.040;8.850;2023-06-26T10:39:53;29.90;96.40
32334;DHT22;18810;53.040;8.850;2023-06-26T10:42:35;29.90;94.70
32334;DHT22;18810;53.040;8.850;2023-06-26T10:45:20;29.70;94.20
32334;DHT22;18810;53.040;8.850;2023-06-26T10:47:48;29.30;94.90
32334;DHT22;18810;53.040;8.850;2023-06-26T10:52:44;29.70;95.50
32334;DHT22;18810;53.040;8.850;2023-06-26T10:55:09;30.30;94.80
32334;DHT22;18810;53.040;8.850;2023-06-26T10:57:38;31.20;93.50
32334;DHT22;18810;53.040;8.850;2023-06-26T11:00:11;31.50;91.80
32334;DHT22;18810;53.040;8.850;2023-06-26T11:02:49;32.00;91.20
32334;DHT22;18810;53.040;8.850;2023-06-26T11:05:29;32.50;89.20
32334;DHT22;18810;53.040;8.850;2023-06-26T11:08:10;32.70;88.60
32334;DHT22;18810;53.040;8.850;2023-06-26T11:10:52;32.70;88.30
32334;DHT22;18810;53.040;8.850;2023-06-26T11:13:18;32.40;88.60
32334;DHT22;18810;53.040;8.850;2023-06-26T11:15:49;32.00;90.90
32334;DHT22;18810;53.040;8.850;2023-06-26T11:18:16;31.70;90.70
32334;DHT22;18810;53.040;8.850;2023-06-26T11:20:41;31.40;90.20
32334;DHT22;18810;53.040;8.850;2023-06-26T11:23:11;31.10;90.30
32334;DHT22;18810;53.040;8.850;2023-06-26T11:25:38;31.50;88.20
32334;DHT22;18810;53.040;8.850;2023-06-26T11:28:09;31.10;88.40
32334;DHT22;18810;53.040;8.850;2023-06-26T11:30:35;30.60;90.30
32334;DHT22;18810;53.040;8.850;2023-06-26T11:33:09;31.00;91.00
32334;DHT22;18810;53.040;8.850;2023-06-26T11:35:35;31.10;89.20
32334;DHT22;18810;53.040;8.850;2023-06-26T11:38:03;30.90;89.20
32334;DHT22;18810;53.040;8.850;2023-06-26T11:40:36;30.50;90.00
32334;DHT22;18810;53.040;8.850;2023-06-26T11:43:02;30.90;89.90
32334;DHT22;18810;53.040;8.850;2023-06-26T11:45:32;31.30;88.70
32334;DHT22;18810;53.040;8.850;2023-06-26T11:47:59;31.90;85.30
32334;DHT22;18810;53.040;8.850;2023-06-26T11:50:25;32.10;84.70
32334;DHT22;18810;53.040;8.850;2023-06-26T11:52:55;31.80;83.20
32334;DHT22;18810;53.040;8.850;2023-06-26T11:55:22;30.70;84.40
32334;DHT22;18810;53.040;8.850;2023-06-26T11:57:58;30.40;85.40
32334;DHT22;18810;53.040;8.850;2023-06-26T12:00:23;30.50;85.30
32334;DHT22;18810;53.040;8.850;2023-06-26T12:02:49;31.20;85.50
32334;DHT22;18810;53.040;8.850;2023-06-26T12:05:17;32.20;83.70
32334;DHT22;18810;53.040;8.850;2023-06-26T12:07:44;32.30;80.40
32334;DHT22;18810;53.040;8.850;2023-06-26T12:10:11;32.70;82.60
32334;DHT22;18810;53.040;8.850;2023-06-26T12:12:38;33.10;79.30
32334;DHT22;18810;53.040;8.850;2023-06-26T12:15:06;33.20;80.00
32334;DHT22;18810;53.040;8.850;2023-06-26T12:17:33;33.40;81.30
32334;DHT22;18810;53.040;8.850;2023-06-26T12:19:58;33.40;79.70
32334;DHT22;18810;53.040;8.850;2023-06-26T12:22:33;32.60;77.80
32334;DHT22;18810;53.040;8.850;2023-06-26T12:25:00;31.40;78.30
32334;DHT22;18810;53.040;8.850;2023-06-26T12:27:25;30.80;81.10
32334;DHT22;18810;53.040;8.850;2023-06-26T12:29:53;30.80;82.30
32334;DHT22;18810;53.040;8.850;2023-06-26T12:32:19;30.50;82.00
32334;DHT22;18810;53.040;8.850;2023-06-26T12:34:56;30.00;82.10
32334;DHT22;18810;53.040;8.850;2023-06-26T12:37:22;29.60;83.00
32334;DHT22;18810;53.040;8.850;2023-06-26T12:39:56;30.00;83.60
32334;DHT22;18810;53.040;8.850;2023-06-26T12:42:27;30.80;84.50
32334;DHT22;18810;53.040;8.850;2023-06-26T12:44:53;31.60;82.20
32334;DHT22;18810;53.040;8.850;2023-06-26T12:47:30;31.20;80.70
32334;DHT22;18810;53.040;8.850;2023-06-26T12:49:57;30.90;81.10
32334;DHT22;18810;53.040;8.850;2023-06-26T12:52:23;31.00;81.20
32334;DHT22;18810;53.040;8.850;2023-06-26T12:54:54;30.80;82.50
32334;DHT22;18810;53.040;8.850;2023-06-26T12:57:21;30.30;82.10
32334;DHT22;18810;53.040;8.850;2023-06-26T12:59:47;30.20;82.60
32334;DHT22;18810;53.040;8.850;2023-06-26T13:02:13;30.10;82.40
32334;DHT22;18810;53.040;8.850;2023-06-26T13:04:39;29.90;82.60
32334;DHT22;18810;53.040;8.850;2023-06-26T13:07:06;29.60;83.90
32334;DHT22;18810;53.040;8.850;2023-06-26T13:09:35;29.40;85.60
32334;DHT22;18810;53.040;8.850;2023-06-26T13:12:03;29.80;86.70
32334;DHT22;18810;53.040;8.850;2023-06-26T13:14:30;29.50;86.90
32334;DHT22;18810;53.040;8.850;2023-06-26T13:16:55;30.10;86.60
32334;DHT22;18810;53.040;8.850;2023-06-26T13:19:21;30.50;84.50
32334;DHT22;18810;53.040;8.850;2023-06-26T13:21:47;30.80;83.90
32334;DHT22;18810;53.040;8.850;2023-06-26T13:24:13;31.20;82.00
32334;DHT22;18810;53.040;8.850;2023-06-26T13:26:39;31.80;81.70
32334;DHT22;18810;53.040;8.850;2023-06-26T13:29:05;32.20;77.10
32334;DHT22;18810;53.040;8.850;2023-06-26T13:31:31;32.20;78.60
32334;DHT22;18810;53.040;8.850;2023-06-26T13:33:58;32.20;78.20
32334;DHT22;18810;53.040;8.850;2023-06-26T13:36:24;32.00;77.50
32334;DHT22;18810;53.040;8.850;2023-06-26T13:38:50;31.50;79.80
32334;DHT22;18810;53.040;8.850;2023-06-26T13:41:24;30.70;81.80
32334;DHT22;18810;53.040;8.850;2023-06-26T13:43:51;30.10;82.70
32334;DHT22;18810;53.040;8.850;2023-06-26T13:46:17;29.90;85.50
32334;DHT22;18810;53.040;8.850;2023-06-26T13:48:44;30.50;83.80
32334;DHT22;18810;53.040;8.850;2023-06-26T13:51:10;31.10;81.20
32334;DHT22;18810;53.040;8.850;2023-06-26T13:53:35;31.10;82.00
32334;DHT22;18810;53.040;8.850;2023-06-26T13:56:01;30.80;80.10
32334;DHT22;18810;53.040;8.850;2023-06-26T13:58:27;30.20;81.30
32334;DHT22;18810;53.040;8.850;2023-06-26T14:00:55;29.90;81.60
32334;DHT22;18810;53.040;8.850;2023-06-26T14:03:21;29.80;81.90
32334;DHT22;18810;53.040;8.850;2023-06-26T14:05:46;29.70;82.30
32334;DHT22;18810;53.040;8.850;2023-06-26T14:08:13;29.70;82.40
32334;DHT22;18810;53.040;8.850;2023-06-26T14:10:39;29.60;83.20
32334;DHT22;18810;53.040;8.850;2023-06-26T14:13:04;29.40;83.20
32334;DHT22;18810;53.040;8.850;2023-06-26T14:15:30;29.20;84.00
32334;DHT22;18810;53.040;8.850;2023-06-26T14:17:56;29.40;82.70
32334;DHT22;18810;53.040;8.850;2023-06-26T14:20:22;29.40;82.60
32334;DHT22;18810;53.040;8.850;2023-06-26T14:22:49;29.10;83.00
32334;DHT22;18810;53.040;8.850;2023-06-26T14:25:15;29.20;83.70
32334;DHT22;18810;53.040;8.850;2023-06-26T14:27:41;29.40;82.40
32334;DHT22;18810;53.040;8.850;2023-06-26T14:30:08;29.50;82.00
32334;DHT22;18810;53.040;8.850;2023-06-26T14:32:34;29.70;80.60
32334;DHT22;18810;53.040;8.850;2023-06-26T14:35:01;29.80;82.30
32334;DHT22;18810;53.040;8.850;2023-06-26T14:37:30;29.40;82.40
32334;DHT22;18810;53.040;8.850;2023-06-26T14:39:56;28.60;83.10
32334;DHT22;18810;53.040;8.850;2023-06-26T14:42:23;28.20;84.00
32334;DHT22;18810;53.040;8.850;2023-06-26T14:44:49;28.00;86.10
32334;DHT22;18810;53.040;8.850;2023-06-26T14:47:19;27.70;84.30
32334;DHT22;18810;53.040;8.850;2023-06-26T14:49:45;27.60;85.50
32334;DHT22;18810;53.040;8.850;2023-06-26T14:52:11;27.70;84.50
32334;DHT22;18810;53.040;8.850;2023-06-26T14:54:37;27.30;85.10
32334;DHT22;18810;53.040;8.850;2023-06-26T14:57:03;27.50;85.90
32334;DHT22;18810;53.040;8.850;2023-06-26T14:59:29;27.70;86.40
32334;DHT22;18810;53.040;8.850;2023-06-26T15:01:55;28.00;86.80
32334;DHT22;18810;53.040;8.850;2023-06-26T15:04:21;28.20;86.10
32334;DHT22;18810;53.040;8.850;2023-06-26T15:06:47;28.10;86.70
32334;DHT22;18810;53.040;8.850;2023-06-26T15:09:12;28.40;85.40
32334;DHT22;18810;53.040;8.850;2023-06-26T15:11:38;28.50;83.80
32334;DHT22;18810;53.040;8.850;2023-06-26T15:14:04;28.00;84.00
32334;DHT22;18810;53.040;8.850;2023-06-26T15:16:30;27.60;86.10
32334;DHT22;18810;53.040;8.850;2023-06-26T15:18:55;27.60;85.80
32334;DHT22;18810;53.040;8.850;2023-06-26T15:21:21;27.40;86.60
32334;DHT22;18810;53.040;8.850;2023-06-26T15:23:47;27.30;87.00
32334;DHT22;18810;53.040;8.850;2023-06-26T15:26:13;26.90;86.70
32334;DHT22;18810;53.040;8.850;2023-06-26T15:28:39;27.00;88.20
32334;DHT22;18810;53.040;8.850;2023-06-26T15:31:05;27.40;87.30
32334;DHT22;18810;53.040;8.850;2023-06-26T15:33:31;27.40;87.90
32334;DHT22;18810;53.040;8.850;2023-06-26T15:35:57;27.50;87.10
32334;DHT22;18810;53.040;8.850;2023-06-26T15:38:22;27.60;86.20
32334;DHT22;18810;53.040;8.850;2023-06-26T15:40:48;27.20;87.50
32334;DHT22;18810;53.040;8.850;2023-06-26T15:43:14;26.80;87.70